sensor_id;sensor_type;location;lat;lon;timestamp;P1;durP1;ratioP1;P2;durP2;ratioP2
30096;SDS011;16915;51.466;3.610;2023-02-15T00:01:33;62.00;;;31.73;;
30096;SDS011;16915;51.466;3.610;2023-02-15T00:03:59;64.03;;;31.23;;
30096;SDS011;16915;51.466;3.610;2023-02-15T00:06:25;65.60;;;31.75;;
30096;SDS011;16915;51.466;3.610;2023-02-15T00:08:51;64.07;;;31.63;;
30096;SDS011;16915;51.466;3.610;2023-02-15T00:11:18;65.38;;;30.90;;
30096;SDS011;16915;51.466;3.610;2023-02-15T00:14:03;64.13;;;31.20;;
30096;SDS011;16915;51.466;3.610;2023-02-15T00:16:30;63.72;;;30.40;;
30096;SDS011;16915;51.466;3.610;2023-02-15T00:18:56;60.00;;;29.42;;
30096;SDS011;16915;51.466;3.610;2023-02-15T00:21:21;65.95;;;31.67;;
30096;SDS011;16915;51.466;3.610;2023-02-15T00:23:47;67.78;;;31.23;;
30096;SDS011;16915;51.466;3.610;2023-02-15T00:26:13;63.20;;;30.38;;
30096;SDS011;16915;51.466;3.610;2023-02-15T00:28:38;67.18;;;30.90;;
30096;SDS011;16915;51.466;3.610;2023-02-15T00:33:33;59.13;;;30.65;;
30096;SDS011;16915;51.466;3.610;2023-02-15T00:35:59;58.38;;;30.30;;
30096;SDS011;16915;51.466;3.610;2023-02-15T00:38:26;64.95;;;29.75;;
30096;SDS011;16915;51.466;3.610;2023-02-15T00:40:53;54.65;;;27.83;;
30096;SDS011;16915;51.466;3.610;2023-02-15T00:43:19;58.30;;;27.75;;
30096;SDS011;16915;51.466;3.610;2023-02-15T00:45:45;70.93;;;31.92;;
30096;SDS011;16915;51.466;3.610;2023-02-15T00:48:11;64.70;;;29.85;;
30096;SDS011;16915;51.466;3.610;2023-02-15T00:50:36;67.75;;;31.50;;
30096;SDS011;16915;51.466;3.610;2023-02-15T00:53:02;61.33;;;29.35;;
30096;SDS011;16915;51.466;3.610;2023-02-15T00:55:28;66.85;;;28.92;;
30096;SDS011;16915;51.466;3.610;2023-02-15T00:57:53;64.03;;;29.77;;
30096;SDS011;16915;51.466;3.610;2023-02-15T01:00:19;69.20;;;30.63;;
30096;SDS011;16915;51.466;3.610;2023-02-15T01:02:45;67.00;;;30.95;;
30096;SDS011;16915;51.466;3.610;2023-02-15T01:05:11;55.95;;;28.70;;
30096;SDS011;16915;51.466;3.610;2023-02-15T01:07:37;56.35;;;27.70;;
30096;SDS011;16915;51.466;3.610;2023-02-15T01:10:03;62.75;;;29.52;;
30096;SDS011;16915;51.466;3.610;2023-02-15T01:12:30;65.63;;;27.88;;
30096;SDS011;16915;51.466;3.610;2023-02-15T01:14:56;53.78;;;26.92;;
30096;SDS011;16915;51.466;3.610;2023-02-15T01:17:21;53.03;;;28.00;;
30096;SDS011;16915;51.466;3.610;2023-02-15T01:19:47;46.63;;;27.20;;
30096;SDS011;16915;51.466;3.610;2023-02-15T01:22:12;45.35;;;25.67;;
30096;SDS011;16915;51.466;3.610;2023-02-15T01:24:38;44.85;;;25.17;;
30096;SDS011;16915;51.466;3.610;2023-02-15T01:27:03;41.28;;;24.42;;
30096;SDS011;16915;51.466;3.610;2023-02-15T01:29:29;44.97;;;25.05;;
30096;SDS011;16915;51.466;3.610;2023-02-15T01:31:55;44.90;;;24.45;;
30096;SDS011;16915;51.466;3.610;2023-02-15T01:34:20;48.78;;;25.08;;
30096;SDS011;16915;51.466;3.610;2023-02-15T01:36:46;46.38;;;25.60;;
30096;SDS011;16915;51.466;3.610;2023-02-15T01:39:11;59.50;;;27.42;;
30096;SDS011;16915;51.466;3.610;2023-02-15T01:41:37;47.10;;;25.50;;
30096;SDS011;16915;51.466;3.610;2023-02-15T01:44:02;45.38;;;25.45;;
30096;SDS011;16915;51.466;3.610;2023-02-15T01:46:36;38.33;;;23.13;;
30096;SDS011;16915;51.466;3.610;2023-02-15T01:49:23;48.38;;;23.20;;
30096;SDS011;16915;51.466;3.610;2023-02-15T01:51:51;36.78;;;22.25;;
30096;SDS011;16915;51.466;3.610;2023-02-15T01:54:25;43.60;;;24.25;;
30096;SDS011;16915;51.466;3.610;2023-02-15T01:56:55;75.28;;;23.60;;
30096;SDS011;16915;51.466;3.610;2023-02-15T01:59:24;82.57;;;24.13;;
30096;SDS011;16915;51.466;3.610;2023-02-15T02:01:51;71.78;;;24.98;;
30096;SDS011;16915;51.466;3.610;2023-02-15T02:04:28;62.53;;;23.73;;
30096;SDS011;16915;51.466;3.610;2023-02-15T02:07:15;52.35;;;24.48;;
30096;SDS011;16915;51.466;3.610;2023-02-15T02:09:44;43.25;;;24.45;;
30096;SDS011;16915;51.466;3.610;2023-02-15T02:12:10;35.20;;;22.88;;
30096;SDS011;16915;51.466;3.610;2023-02-15T02:14:37;38.30;;;22.23;;
30096;SDS011;16915;51.466;3.610;2023-02-15T02:30:48;39.05;;;22.85;;
30096;SDS011;16915;51.466;3.610;2023-02-15T02:36:21;43.90;;;23.35;;
30096;SDS011;16915;51.466;3.610;2023-02-15T02:44:25;43.53;;;23.15;;
30096;SDS011;16915;51.466;3.610;2023-02-15T02:46:59;37.83;;;21.67;;
30096;SDS011;16915;51.466;3.610;2023-02-15T02:49:34;40.08;;;22.35;;
30096;SDS011;16915;51.466;3.610;2023-02-15T02:52:03;40.53;;;22.17;;
30096;SDS011;16915;51.466;3.610;2023-02-15T02:54:31;35.95;;;21.58;;
30096;SDS011;16915;51.466;3.610;2023-02-15T02:56:59;34.15;;;20.33;;
30096;SDS011;16915;51.466;3.610;2023-02-15T02:59:37;32.80;;;19.90;;
30096;SDS011;16915;51.466;3.610;2023-02-15T03:02:11;34.08;;;21.77;;
30096;SDS011;16915;51.466;3.610;2023-02-15T03:04:43;32.50;;;21.13;;
30096;SDS011;16915;51.466;3.610;2023-02-15T03:07:12;34.05;;;20.13;;
30096;SDS011;16915;51.466;3.610;2023-02-15T03:09:47;39.95;;;22.08;;
30096;SDS011;16915;51.466;3.610;2023-02-15T03:12:17;40.20;;;22.85;;
30096;SDS011;16915;51.466;3.610;2023-02-15T03:14:53;77.13;;;23.85;;
30096;SDS011;16915;51.466;3.610;2023-02-15T03:17:26;80.70;;;23.70;;
30096;SDS011;16915;51.466;3.610;2023-02-15T03:19:55;98.22;;;25.95;;
30096;SDS011;16915;51.466;3.610;2023-02-15T03:22:28;47.33;;;25.60;;
30096;SDS011;16915;51.466;3.610;2023-02-15T03:24:59;58.15;;;25.55;;
30096;SDS011;16915;51.466;3.610;2023-02-15T03:27:38;49.30;;;24.50;;
30096;SDS011;16915;51.466;3.610;2023-02-15T03:30:07;50.47;;;24.60;;
30096;SDS011;16915;51.466;3.610;2023-02-15T03:32:35;48.75;;;25.85;;
30096;SDS011;16915;51.466;3.610;2023-02-15T03:35:04;51.25;;;26.02;;
30096;SDS011;16915;51.466;3.610;2023-02-15T03:39:59;50.20;;;25.35;;
30096;SDS011;16915;51.466;3.610;2023-02-15T03:42:53;47.97;;;24.70;;
30096;SDS011;16915;51.466;3.610;2023-02-15T03:45:26;60.67;;;26.38;;
30096;SDS011;16915;51.466;3.610;2023-02-15T03:47:56;58.28;;;25.05;;
30096;SDS011;16915;51.466;3.610;2023-02-15T03:50:26;49.10;;;25.67;;
30096;SDS011;16915;51.466;3.610;2023-02-15T03:53:14;48.67;;;25.42;;
30096;SDS011;16915;51.466;3.610;2023-02-15T03:55:45;48.88;;;24.63;;
30096;SDS011;16915;51.466;3.610;2023-02-15T03:58:12;39.45;;;21.27;;
30096;SDS011;16915;51.466;3.610;2023-02-15T04:01:00;42.05;;;21.85;;
30096;SDS011;16915;51.466;3.610;2023-02-15T04:03:59;38.08;;;21.55;;
30096;SDS011;16915;51.466;3.610;2023-02-15T04:06:28;37.88;;;21.35;;
30096;SDS011;16915;51.466;3.610;2023-02-15T04:08:54;40.63;;;23.27;;
30096;SDS011;16915;51.466;3.610;2023-02-15T04:11:38;42.72;;;23.80;;
30096;SDS011;16915;51.466;3.610;2023-02-15T04:14:03;45.80;;;24.05;;
30096;SDS011;16915;51.466;3.610;2023-02-15T04:16:49;46.03;;;23.88;;
30096;SDS011;16915;51.466;3.610;2023-02-15T04:19:14;44.40;;;23.67;;
30096;SDS011;16915;51.466;3.610;2023-02-15T04:21:59;52.97;;;24.13;;
30096;SDS011;16915;51.466;3.610;2023-02-15T04:24:43;44.65;;;23.85;;
30096;SDS011;16915;51.466;3.610;2023-02-15T04:27:27;41.78;;;22.60;;
30096;SDS011;16915;51.466;3.610;2023-02-15T04:29:52;44.25;;;24.42;;
30096;SDS011;16915;51.466;3.610;2023-02-15T04:32:18;57.10;;;26.33;;
30096;SDS011;16915;51.466;3.610;2023-02-15T04:34:43;44.47;;;25.05;;
30096;SDS011;16915;51.466;3.610;2023-02-15T04:37:09;48.35;;;25.00;;
30096;SDS011;16915;51.466;3.610;2023-02-15T04:39:35;53.50;;;26.15;;
30096;SDS011;16915;51.466;3.610;2023-02-15T04:42:00;55.20;;;28.27;;
30096;SDS011;16915;51.466;3.610;2023-02-15T04:44:26;60.67;;;29.35;;
30096;SDS011;16915;51.466;3.610;2023-02-15T04:46:52;68.63;;;30.80;;
30096;SDS011;16915;51.466;3.610;2023-02-15T04:49:17;56.83;;;28.27;;
30096;SDS011;16915;51.466;3.610;2023-02-15T04:51:43;64.85;;;28.80;;
30096;SDS011;16915;51.466;3.610;2023-02-15T04:54:08;60.55;;;28.95;;
30096;SDS011;16915;51.466;3.610;2023-02-15T04:56:34;63.60;;;29.85;;
30096;SDS011;16915;51.466;3.610;2023-02-15T04:59:02;59.13;;;30.27;;
30096;SDS011;16915;51.466;3.610;2023-02-15T05:01:28;60.97;;;30.73;;
30096;SDS011;16915;51.466;3.610;2023-02-15T05:03:54;67.57;;;30.75;;
30096;SDS011;16915;51.466;3.610;2023-02-15T05:06:19;73.35;;;35.15;;
30096;SDS011;16915;51.466;3.610;2023-02-15T05:08:45;88.15;;;38.60;;
30096;SDS011;16915;51.466;3.610;2023-02-15T05:11:10;87.90;;;39.58;;
30096;SDS011;16915;51.466;3.610;2023-02-15T05:13:36;91.90;;;39.95;;
30096;SDS011;16915;51.466;3.610;2023-02-15T05:16:01;107.70;;;44.38;;
30096;SDS011;16915;51.466;3.610;2023-02-15T05:18:27;102.38;;;45.13;;
30096;SDS011;16915;51.466;3.610;2023-02-15T05:20:52;110.22;;;47.25;;
30096;SDS011;16915;51.466;3.610;2023-02-15T05:23:18;111.50;;;45.90;;
30096;SDS011;16915;51.466;3.610;2023-02-15T05:25:50;96.75;;;43.95;;
30096;SDS011;16915;51.466;3.610;2023-02-15T05:28:35;102.90;;;44.80;;
30096;SDS011;16915;51.466;3.610;2023-02-15T05:31:06;95.85;;;43.42;;
30096;SDS011;16915;51.466;3.610;2023-02-15T05:33:36;106.78;;;47.20;;
30096;SDS011;16915;51.466;3.610;2023-02-15T05:36:02;117.32;;;48.80;;
30096;SDS011;16915;51.466;3.610;2023-02-15T05:38:29;126.60;;;51.47;;
30096;SDS011;16915;51.466;3.610;2023-02-15T05:40:55;128.05;;;52.17;;
30096;SDS011;16915;51.466;3.610;2023-02-15T05:43:21;124.93;;;52.83;;
30096;SDS011;16915;51.466;3.610;2023-02-15T05:45:47;137.63;;;55.17;;
30096;SDS011;16915;51.466;3.610;2023-02-15T05:48:18;147.02;;;57.22;;
30096;SDS011;16915;51.466;3.610;2023-02-15T05:50:45;137.30;;;55.13;;
30096;SDS011;16915;51.466;3.610;2023-02-15T05:53:11;135.80;;;55.80;;
30096;SDS011;16915;51.466;3.610;2023-02-15T05:55:40;142.85;;;55.65;;
30096;SDS011;16915;51.466;3.610;2023-02-15T05:58:06;140.35;;;55.00;;
30096;SDS011;16915;51.466;3.610;2023-02-15T06:00:33;142.30;;;54.42;;
30096;SDS011;16915;51.466;3.610;2023-02-15T06:02:59;137.77;;;56.42;;
30096;SDS011;16915;51.466;3.610;2023-02-15T06:05:24;142.60;;;56.33;;
30096;SDS011;16915;51.466;3.610;2023-02-15T06:07:50;145.30;;;59.13;;
30096;SDS011;16915;51.466;3.610;2023-02-15T06:10:16;132.18;;;54.72;;
30096;SDS011;16915;51.466;3.610;2023-02-15T06:12:43;135.98;;;52.92;;
30096;SDS011;16915;51.466;3.610;2023-02-15T06:15:09;135.07;;;54.05;;
30096;SDS011;16915;51.466;3.610;2023-02-15T06:17:34;131.73;;;53.38;;
30096;SDS011;16915;51.466;3.610;2023-02-15T06:20:00;112.15;;;49.85;;
30096;SDS011;16915;51.466;3.610;2023-02-15T06:22:25;121.90;;;50.15;;
30096;SDS011;16915;51.466;3.610;2023-02-15T06:24:51;123.05;;;51.78;;
30096;SDS011;16915;51.466;3.610;2023-02-15T06:27:16;116.32;;;50.60;;
30096;SDS011;16915;51.466;3.610;2023-02-15T06:29:42;122.60;;;51.13;;
30096;SDS011;16915;51.466;3.610;2023-02-15T06:32:08;140.55;;;51.03;;
30096;SDS011;16915;51.466;3.610;2023-02-15T06:34:33;116.50;;;48.88;;
30096;SDS011;16915;51.466;3.610;2023-02-15T06:36:59;124.68;;;51.60;;
30096;SDS011;16915;51.466;3.610;2023-02-15T06:39:24;113.78;;;49.83;;
30096;SDS011;16915;51.466;3.610;2023-02-15T06:41:50;121.15;;;48.47;;
30096;SDS011;16915;51.466;3.610;2023-02-15T06:44:16;122.30;;;50.78;;
30096;SDS011;16915;51.466;3.610;2023-02-15T06:46:41;128.32;;;52.95;;
30096;SDS011;16915;51.466;3.610;2023-02-15T06:49:07;127.00;;;51.15;;
30096;SDS011;16915;51.466;3.610;2023-02-15T06:51:32;119.78;;;50.45;;
30096;SDS011;16915;51.466;3.610;2023-02-15T06:53:59;118.50;;;48.38;;
30096;SDS011;16915;51.466;3.610;2023-02-15T06:56:25;116.85;;;49.53;;
30096;SDS011;16915;51.466;3.610;2023-02-15T06:58:51;117.05;;;47.80;;
30096;SDS011;16915;51.466;3.610;2023-02-15T07:01:17;125.47;;;50.55;;
30096;SDS011;16915;51.466;3.610;2023-02-15T07:03:43;125.53;;;48.40;;
30096;SDS011;16915;51.466;3.610;2023-02-15T07:06:09;109.78;;;48.22;;
30096;SDS011;16915;51.466;3.610;2023-02-15T07:08:36;120.88;;;50.15;;
30096;SDS011;16915;51.466;3.610;2023-02-15T07:11:03;126.97;;;50.40;;
30096;SDS011;16915;51.466;3.610;2023-02-15T07:13:49;115.15;;;48.75;;
30096;SDS011;16915;51.466;3.610;2023-02-15T07:16:15;127.80;;;49.58;;
30096;SDS011;16915;51.466;3.610;2023-02-15T07:18:41;135.27;;;49.25;;
30096;SDS011;16915;51.466;3.610;2023-02-15T07:21:06;125.32;;;50.22;;
30096;SDS011;16915;51.466;3.610;2023-02-15T07:23:35;117.15;;;48.40;;
30096;SDS011;16915;51.466;3.610;2023-02-15T07:26:02;109.95;;;45.85;;
30096;SDS011;16915;51.466;3.610;2023-02-15T07:28:29;113.93;;;47.78;;
30096;SDS011;16915;51.466;3.610;2023-02-15T07:30:54;120.00;;;47.58;;
30096;SDS011;16915;51.466;3.610;2023-02-15T07:33:20;109.22;;;45.95;;
30096;SDS011;16915;51.466;3.610;2023-02-15T07:35:49;118.00;;;45.53;;
30096;SDS011;16915;51.466;3.610;2023-02-15T07:38:16;110.47;;;45.70;;
30096;SDS011;16915;51.466;3.610;2023-02-15T07:40:42;114.68;;;44.30;;
30096;SDS011;16915;51.466;3.610;2023-02-15T07:43:08;123.60;;;46.25;;
30096;SDS011;16915;51.466;3.610;2023-02-15T07:45:34;113.93;;;46.50;;
30096;SDS011;16915;51.466;3.610;2023-02-15T07:48:00;116.35;;;47.22;;
30096;SDS011;16915;51.466;3.610;2023-02-15T07:50:27;116.20;;;45.72;;
30096;SDS011;16915;51.466;3.610;2023-02-15T07:52:52;119.65;;;48.20;;
30096;SDS011;16915;51.466;3.610;2023-02-15T07:55:18;131.45;;;49.70;;
30096;SDS011;16915;51.466;3.610;2023-02-15T07:57:44;127.22;;;49.65;;
30096;SDS011;16915;51.466;3.610;2023-02-15T08:00:11;119.50;;;49.25;;
30096;SDS011;16915;51.466;3.610;2023-02-15T08:02:38;131.68;;;50.03;;
30096;SDS011;16915;51.466;3.610;2023-02-15T08:05:04;135.05;;;52.88;;
30096;SDS011;16915;51.466;3.610;2023-02-15T08:07:30;137.43;;;52.33;;
30096;SDS011;16915;51.466;3.610;2023-02-15T08:09:56;134.43;;;52.05;;
30096;SDS011;16915;51.466;3.610;2023-02-15T08:12:21;139.05;;;52.70;;
30096;SDS011;16915;51.466;3.610;2023-02-15T08:14:47;156.55;;;56.10;;
30096;SDS011;16915;51.466;3.610;2023-02-15T08:17:12;144.73;;;55.55;;
30096;SDS011;16915;51.466;3.610;2023-02-15T08:19:38;142.80;;;54.25;;
30096;SDS011;16915;51.466;3.610;2023-02-15T08:22:04;154.68;;;56.72;;
30096;SDS011;16915;51.466;3.610;2023-02-15T08:24:32;148.70;;;55.35;;
30096;SDS011;16915;51.466;3.610;2023-02-15T08:27:02;173.27;;;60.45;;
30096;SDS011;16915;51.466;3.610;2023-02-15T08:29:29;155.75;;;58.22;;
30096;SDS011;16915;51.466;3.610;2023-02-15T08:31:56;162.75;;;57.65;;
30096;SDS011;16915;51.466;3.610;2023-02-15T08:34:27;156.18;;;58.58;;
30096;SDS011;16915;51.466;3.610;2023-02-15T08:36:53;164.70;;;60.42;;
30096;SDS011;16915;51.466;3.610;2023-02-15T08:39:19;160.45;;;59.08;;
30096;SDS011;16915;51.466;3.610;2023-02-15T08:41:45;161.70;;;58.60;;
30096;SDS011;16915;51.466;3.610;2023-02-15T08:44:11;164.80;;;63.10;;
30096;SDS011;16915;51.466;3.610;2023-02-15T08:46:39;159.68;;;58.70;;
30096;SDS011;16915;51.466;3.610;2023-02-15T08:49:06;175.55;;;61.80;;
30096;SDS011;16915;51.466;3.610;2023-02-15T08:51:33;165.65;;;60.72;;
30096;SDS011;16915;51.466;3.610;2023-02-15T08:54:02;172.23;;;60.63;;
30096;SDS011;16915;51.466;3.610;2023-02-15T08:56:34;168.23;;;63.60;;
30096;SDS011;16915;51.466;3.610;2023-02-15T08:59:02;170.98;;;62.13;;
30096;SDS011;16915;51.466;3.610;2023-02-15T09:01:29;170.30;;;63.17;;
30096;SDS011;16915;51.466;3.610;2023-02-15T09:03:57;159.88;;;61.70;;
30096;SDS011;16915;51.466;3.610;2023-02-15T09:06:24;159.73;;;60.10;;
30096;SDS011;16915;51.466;3.610;2023-02-15T09:08:50;156.15;;;60.30;;
30096;SDS011;16915;51.466;3.610;2023-02-15T09:13:54;151.65;;;60.80;;
30096;SDS011;16915;51.466;3.610;2023-02-15T09:16:25;151.90;;;58.83;;
30096;SDS011;16915;51.466;3.610;2023-02-15T09:18:52;162.35;;;60.83;;
30096;SDS011;16915;51.466;3.610;2023-02-15T09:21:19;147.55;;;59.22;;
30096;SDS011;16915;51.466;3.610;2023-02-15T09:23:49;159.20;;;59.53;;
30096;SDS011;16915;51.466;3.610;2023-02-15T09:26:20;144.52;;;57.42;;
30096;SDS011;16915;51.466;3.610;2023-02-15T09:28:47;139.45;;;57.90;;
30096;SDS011;16915;51.466;3.610;2023-02-15T09:31:16;133.38;;;56.10;;
30096;SDS011;16915;51.466;3.610;2023-02-15T09:33:44;136.15;;;57.45;;
30096;SDS011;16915;51.466;3.610;2023-02-15T09:36:21;133.27;;;54.08;;
30096;SDS011;16915;51.466;3.610;2023-02-15T10:00:48;69.25;;;35.30;;
30096;SDS011;16915;51.466;3.610;2023-02-15T10:26:20;61.90;;;31.67;;
30096;SDS011;16915;51.466;3.610;2023-02-15T10:31:33;61.65;;;30.48;;
30096;SDS011;16915;51.466;3.610;2023-02-15T10:42:43;57.53;;;29.33;;
30096;SDS011;16915;51.466;3.610;2023-02-15T10:56:20;60.77;;;29.50;;
30096;SDS011;16915;51.466;3.610;2023-02-15T10:59:06;57.85;;;29.27;;
30096;SDS011;16915;51.466;3.610;2023-02-15T11:04:40;55.08;;;29.27;;
30096;SDS011;16915;51.466;3.610;2023-02-15T11:10:33;56.53;;;27.40;;
30096;SDS011;16915;51.466;3.610;2023-02-15T11:13:03;56.20;;;28.73;;
30096;SDS011;16915;51.466;3.610;2023-02-15T11:15:35;50.40;;;28.17;;
30096;SDS011;16915;51.466;3.610;2023-02-15T11:18:32;55.58;;;29.60;;
30096;SDS011;16915;51.466;3.610;2023-02-15T11:23:32;50.33;;;29.42;;
30096;SDS011;16915;51.466;3.610;2023-02-15T11:26:02;49.72;;;28.27;;
30096;SDS011;16915;51.466;3.610;2023-02-15T11:30:58;49.95;;;28.17;;
30096;SDS011;16915;51.466;3.610;2023-02-15T11:33:37;46.67;;;26.75;;
30096;SDS011;16915;51.466;3.610;2023-02-15T11:38:42;46.47;;;27.25;;
30096;SDS011;16915;51.466;3.610;2023-02-15T11:41:13;49.08;;;27.70;;
30096;SDS011;16915;51.466;3.610;2023-02-15T11:43:55;48.83;;;27.02;;
30096;SDS011;16915;51.466;3.610;2023-02-15T11:46:26;54.05;;;27.77;;
30096;SDS011;16915;51.466;3.610;2023-02-15T11:48:51;49.10;;;28.00;;
30096;SDS011;16915;51.466;3.610;2023-02-15T11:51:18;48.63;;;26.95;;
30096;SDS011;16915;51.466;3.610;2023-02-15T11:53:45;54.33;;;28.92;;
30096;SDS011;16915;51.466;3.610;2023-02-15T11:56:13;51.35;;;28.70;;
30096;SDS011;16915;51.466;3.610;2023-02-15T11:58:54;48.03;;;28.10;;
30096;SDS011;16915;51.466;3.610;2023-02-15T12:01:27;46.85;;;27.30;;
30096;SDS011;16915;51.466;3.610;2023-02-15T12:11:52;49.75;;;28.13;;
30096;SDS011;16915;51.466;3.610;2023-02-15T12:14:18;47.10;;;26.45;;
30096;SDS011;16915;51.466;3.610;2023-02-15T12:16:46;48.67;;;27.35;;
30096;SDS011;16915;51.466;3.610;2023-02-15T12:19:29;45.65;;;26.17;;
30096;SDS011;16915;51.466;3.610;2023-02-15T12:21:58;44.65;;;26.33;;
30096;SDS011;16915;51.466;3.610;2023-02-15T12:24:28;50.75;;;27.30;;
30096;SDS011;16915;51.466;3.610;2023-02-15T12:27:03;47.00;;;26.80;;
30096;SDS011;16915;51.466;3.610;2023-02-15T12:34:52;51.45;;;26.92;;
30096;SDS011;16915;51.466;3.610;2023-02-15T12:37:26;44.80;;;24.75;;
30096;SDS011;16915;51.466;3.610;2023-02-15T12:39:55;45.40;;;26.40;;
30096;SDS011;16915;51.466;3.610;2023-02-15T12:42:25;48.13;;;26.50;;
30096;SDS011;16915;51.466;3.610;2023-02-15T12:44:58;46.72;;;26.80;;
30096;SDS011;16915;51.466;3.610;2023-02-15T12:50:14;41.00;;;25.02;;
30096;SDS011;16915;51.466;3.610;2023-02-15T12:52:48;41.90;;;24.92;;
30096;SDS011;16915;51.466;3.610;2023-02-15T12:55:20;43.88;;;25.45;;
30096;SDS011;16915;51.466;3.610;2023-02-15T12:57:46;38.28;;;26.05;;
30096;SDS011;16915;51.466;3.610;2023-02-15T13:02:47;44.47;;;25.10;;
30096;SDS011;16915;51.466;3.610;2023-02-15T13:13:30;40.70;;;25.80;;
30096;SDS011;16915;51.466;3.610;2023-02-15T13:16:02;42.03;;;26.92;;
30096;SDS011;16915;51.466;3.610;2023-02-15T13:18:39;41.97;;;27.60;;
30096;SDS011;16915;51.466;3.610;2023-02-15T13:21:13;45.58;;;27.83;;
30096;SDS011;16915;51.466;3.610;2023-02-15T13:24:00;41.63;;;27.48;;
30096;SDS011;16915;51.466;3.610;2023-02-15T13:26:30;42.78;;;26.13;;
30096;SDS011;16915;51.466;3.610;2023-02-15T13:28:58;42.08;;;27.70;;
30096;SDS011;16915;51.466;3.610;2023-02-15T13:31:33;38.47;;;26.35;;
30096;SDS011;16915;51.466;3.610;2023-02-15T13:34:07;40.65;;;26.27;;
30096;SDS011;16915;51.466;3.610;2023-02-15T13:36:44;38.40;;;26.60;;
30096;SDS011;16915;51.466;3.610;2023-02-15T13:47:32;39.72;;;25.10;;
30096;SDS011;16915;51.466;3.610;2023-02-15T13:52:32;40.60;;;26.15;;
30096;SDS011;16915;51.466;3.610;2023-02-15T14:08:21;47.88;;;26.83;;
30096;SDS011;16915;51.466;3.610;2023-02-15T14:10:59;70.60;;;27.65;;
30096;SDS011;16915;51.466;3.610;2023-02-15T14:19:12;48.25;;;25.55;;
30096;SDS011;16915;51.466;3.610;2023-02-15T14:24:23;43.00;;;25.05;;
30096;SDS011;16915;51.466;3.610;2023-02-15T14:30:03;45.05;;;24.27;;
30096;SDS011;16915;51.466;3.610;2023-02-15T14:32:41;42.75;;;25.27;;
30096;SDS011;16915;51.466;3.610;2023-02-15T14:35:15;44.17;;;25.80;;
30096;SDS011;16915;51.466;3.610;2023-02-15T14:38:01;53.13;;;26.63;;
30096;SDS011;16915;51.466;3.610;2023-02-15T14:40:57;50.10;;;26.00;;
30096;SDS011;16915;51.466;3.610;2023-02-15T15:02:25;50.85;;;26.60;;
30096;SDS011;16915;51.466;3.610;2023-02-15T15:07:22;49.33;;;27.05;;
30096;SDS011;16915;51.466;3.610;2023-02-15T15:10:51;45.55;;;26.58;;
30096;SDS011;16915;51.466;3.610;2023-02-15T15:12:49;52.92;;;28.30;;
30096;SDS011;16915;51.466;3.610;2023-02-15T15:18:07;44.83;;;25.98;;
30096;SDS011;16915;51.466;3.610;2023-02-15T15:20:47;43.33;;;24.40;;
30096;SDS011;16915;51.466;3.610;2023-02-15T15:25:46;45.70;;;24.65;;
30096;SDS011;16915;51.466;3.610;2023-02-15T15:28:59;45.33;;;22.45;;
30096;SDS011;16915;51.466;3.610;2023-02-15T15:34:24;35.53;;;21.35;;
30096;SDS011;16915;51.466;3.610;2023-02-15T15:45:47;44.85;;;25.27;;
30096;SDS011;16915;51.466;3.610;2023-02-15T15:48:37;46.30;;;24.50;;
30096;SDS011;16915;51.466;3.610;2023-02-15T15:51:06;44.05;;;23.70;;
30096;SDS011;16915;51.466;3.610;2023-02-15T15:53:43;42.50;;;24.05;;
30096;SDS011;16915;51.466;3.610;2023-02-15T15:56:15;47.92;;;24.70;;
30096;SDS011;16915;51.466;3.610;2023-02-15T15:58:49;43.38;;;24.65;;
30096;SDS011;16915;51.466;3.610;2023-02-15T16:01:21;44.05;;;23.67;;
30096;SDS011;16915;51.466;3.610;2023-02-15T16:03:54;50.55;;;25.48;;
30096;SDS011;16915;51.466;3.610;2023-02-15T16:06:28;44.90;;;26.08;;
30096;SDS011;16915;51.466;3.610;2023-02-15T16:08:57;48.72;;;26.25;;
30096;SDS011;16915;51.466;3.610;2023-02-15T16:11:33;51.28;;;26.25;;
30096;SDS011;16915;51.466;3.610;2023-02-15T16:14:00;52.30;;;27.38;;
30096;SDS011;16915;51.466;3.610;2023-02-15T16:16:26;54.63;;;28.10;;
30096;SDS011;16915;51.466;3.610;2023-02-15T16:18:54;50.47;;;26.35;;
30096;SDS011;16915;51.466;3.610;2023-02-15T16:21:29;50.65;;;27.00;;
30096;SDS011;16915;51.466;3.610;2023-02-15T16:32:52;49.22;;;28.33;;
30096;SDS011;16915;51.466;3.610;2023-02-15T16:35:54;52.63;;;27.60;;
30096;SDS011;16915;51.466;3.610;2023-02-15T16:39:08;51.75;;;27.50;;
30096;SDS011;16915;51.466;3.610;2023-02-15T16:41:11;49.38;;;28.67;;
30096;SDS011;16915;51.466;3.610;2023-02-15T16:43:40;55.13;;;29.40;;
30096;SDS011;16915;51.466;3.610;2023-02-15T16:46:10;54.45;;;29.65;;
30096;SDS011;16915;51.466;3.610;2023-02-15T16:48:40;55.60;;;29.75;;
30096;SDS011;16915;51.466;3.610;2023-02-15T16:51:09;59.28;;;30.95;;
30096;SDS011;16915;51.466;3.610;2023-02-15T16:53:35;57.25;;;28.80;;
30096;SDS011;16915;51.466;3.610;2023-02-15T16:56:02;54.03;;;29.15;;
30096;SDS011;16915;51.466;3.610;2023-02-15T16:58:40;56.75;;;29.00;;
30096;SDS011;16915;51.466;3.610;2023-02-15T17:01:08;56.17;;;29.50;;
30096;SDS011;16915;51.466;3.610;2023-02-15T17:03:36;55.30;;;29.23;;
30096;SDS011;16915;51.466;3.610;2023-02-15T17:06:04;53.90;;;27.95;;
30096;SDS011;16915;51.466;3.610;2023-02-15T17:08:46;53.97;;;29.75;;
30096;SDS011;16915;51.466;3.610;2023-02-15T17:11:16;60.40;;;30.40;;
30096;SDS011;16915;51.466;3.610;2023-02-15T17:14:10;59.90;;;31.25;;
30096;SDS011;16915;51.466;3.610;2023-02-15T17:16:42;55.92;;;30.45;;
30096;SDS011;16915;51.466;3.610;2023-02-15T17:22:03;58.80;;;31.50;;
30096;SDS011;16915;51.466;3.610;2023-02-15T17:24:34;59.40;;;29.88;;
30096;SDS011;16915;51.466;3.610;2023-02-15T17:29:44;66.53;;;30.97;;
30096;SDS011;16915;51.466;3.610;2023-02-15T17:32:17;57.95;;;30.02;;
30096;SDS011;16915;51.466;3.610;2023-02-15T17:34:50;60.75;;;31.00;;
30096;SDS011;16915;51.466;3.610;2023-02-15T17:37:28;58.85;;;31.00;;
30096;SDS011;16915;51.466;3.610;2023-02-15T17:40:01;54.33;;;30.38;;
30096;SDS011;16915;51.466;3.610;2023-02-15T17:42:51;59.05;;;31.20;;
30096;SDS011;16915;51.466;3.610;2023-02-15T17:45:17;59.10;;;32.00;;
30096;SDS011;16915;51.466;3.610;2023-02-15T17:47:43;60.80;;;32.42;;
30096;SDS011;16915;51.466;3.610;2023-02-15T17:50:22;61.38;;;30.98;;
30096;SDS011;16915;51.466;3.610;2023-02-15T17:52:49;55.40;;;29.30;;
30096;SDS011;16915;51.466;3.610;2023-02-15T17:55:17;58.38;;;31.10;;
30096;SDS011;16915;51.466;3.610;2023-02-15T17:57:59;56.65;;;30.33;;
30096;SDS011;16915;51.466;3.610;2023-02-15T18:00:27;65.07;;;30.30;;
30096;SDS011;16915;51.466;3.610;2023-02-15T18:03:13;60.92;;;30.50;;
30096;SDS011;16915;51.466;3.610;2023-02-15T18:05:57;61.95;;;29.58;;
30096;SDS011;16915;51.466;3.610;2023-02-15T18:08:41;62.33;;;32.03;;
30096;SDS011;16915;51.466;3.610;2023-02-15T18:11:26;57.55;;;29.48;;
30096;SDS011;16915;51.466;3.610;2023-02-15T18:14:04;55.60;;;29.30;;
30096;SDS011;16915;51.466;3.610;2023-02-15T18:16:41;61.05;;;30.23;;
30096;SDS011;16915;51.466;3.610;2023-02-15T18:19:12;63.17;;;29.67;;
30096;SDS011;16915;51.466;3.610;2023-02-15T18:24:09;53.72;;;28.52;;
30096;SDS011;16915;51.466;3.610;2023-02-15T18:26:46;57.88;;;30.30;;